Time;durP1;ratioP1;P1;durP2;ratioP2;P2;SDS_P1;SDS_P2;PMS_P1;PMS_P2;Temp;Humidity;BMP_temperature;BMP_pressure;BME280_temperature;BME280_humidity;BME280_pressure;Samples;Min_cycle;Max_cycle;Signal;HPM_P1;HPM_P2
2022/10/20 00:00:14;;;;;;;9.18;4.25;;;15.80;65.70;;;;;;5093551;28;20063;-75
2022/10/20 00:02:41;;;;;;;6.78;4.30;;;15.80;65.70;;;;;;5094872;28;20409;-75
2022/10/20 00:05:08;;;;;;;6.90;4.22;;;15.80;65.70;;;;;;5093399;28;20055;-75
2022/10/20 00:07:35;;;;;;;7.78;4.68;;;15.80;65.70;;;;;;5093589;28;20127;-75
2022/10/20 00:10:01;;;;;;;7.10;4.47;;;15.80;65.70;;;;;;5093462;28;20052;-75
2022/10/20 00:12:29;;;;;;;5.38;3.95;;;15.70;65.60;;;;;;5080852;28;20061;-75
2022/10/20 00:14:56;;;;;;;5.40;3.70;;;15.70;65.60;;;;;;5073047;28;20469;-75
2022/10/20 00:17:23;;;;;;;6.32;4.40;;;15.70;65.60;;;;;;5072693;28;20044;-74
2022/10/20 00:19:49;;;;;;;7.40;4.35;;;15.70;65.60;;;;;;5073206;28;20053;-75
2022/10/20 00:22:16;;;;;;;5.18;3.58;;;15.70;65.60;;;;;;5072949;28;20067;-75
2022/10/20 00:24:43;;;;;;;6.93;4.00;;;15.70;65.60;;;;;;5073173;28;20063;-75
2022/10/20 00:27:10;;;;;;;6.47;4.25;;;15.70;65.60;;;;;;5072972;28;20053;-75
2022/10/20 00:29:38;;;;;;;7.22;4.30;;;15.70;65.60;;;;;;5091473;28;20058;-75
2022/10/20 00:32:05;;;;;;;5.55;3.88;;;15.70;65.60;;;;;;5079242;28;20056;-75
2022/10/20 00:34:31;;;;;;;5.55;3.47;;;15.60;65.50;;;;;;5072713;28;20056;-75
2022/10/20 00:36:58;;;;;;;7.53;4.28;;;15.70;65.50;;;;;;5074012;28;20053;-75
2022/10/20 00:39:25;;;;;;;4.70;3.45;;;15.60;65.50;;;;;;5072811;28;20052;-75
2022/10/20 00:41:51;;;;;;;5.32;3.45;;;15.70;68.30;;;;;;5072463;28;20057;-74
2022/10/20 00:44:49;;;;;;;6.43;3.33;;;15.70;65.50;;;;;;5073842;28;20135;-75
2022/10/20 00:47:17;;;;;;;5.70;3.90;;;15.60;65.40;;;;;;5072659;28;20135;-74
2022/10/20 00:49:44;;;;;;;5.22;3.42;;;15.60;65.60;;;;;;5072386;28;20055;-75
2022/10/20 00:52:11;;;;;;;4.75;3.30;;;15.60;65.50;;;;;;5072219;28;20508;-75
2022/10/20 00:54:38;;;;;;;6.05;3.80;;;15.60;65.50;;;;;;5072391;28;20131;-75
2022/10/20 00:57:05;;;;;;;5.30;3.42;;;15.60;65.50;;;;;;5071907;28;20052;-75
2022/10/20 00:59:33;;;;;;;4.72;3.63;;;15.60;65.50;;;;;;5078716;28;20050;-75
2022/10/20 01:02:01;;;;;;;4.93;3.03;;;15.60;65.50;;;;;;5092361;28;20047;-74
2022/10/20 01:04:29;;;;;;;6.20;3.47;;;15.60;65.50;;;;;;5093485;28;20050;-75
2022/10/20 01:06:56;;;;;;;5.53;3.28;;;15.60;65.50;;;;;;5092453;28;20074;-75
2022/10/20 01:09:22;;;;;;;5.75;3.20;;;15.20;65.30;;;;;;5092304;28;20052;-74
2022/10/20 01:11:51;;;;;;;5.00;3.25;;;15.60;65.50;;;;;;5092258;28;20106;-75
2022/10/20 01:14:26;;;;;;;6.38;3.55;;;15.50;65.50;;;;;;5080540;28;20052;-75
2022/10/20 01:16:55;;;;;;;;;;;15.60;65.50;;;;;;5072717;28;20059;-75
2022/10/20 01:19:42;;;;;;;5.18;3.20;;;15.50;65.40;;;;;;5072179;28;19920;-75
2022/10/20 01:22:14;;;;;;;4.55;3.22;;;15.50;65.60;;;;;;5071627;28;20064;-74
2022/10/20 01:24:48;;;;;;;5.53;3.20;;;15.50;65.60;;;;;;5072035;28;20057;-75
2022/10/20 01:27:33;;;;;;;5.85;3.70;;;15.50;65.50;;;;;;5071894;28;20058;-74
2022/10/20 01:30:08;;;;;;;3.95;2.97;;;15.50;65.40;;;;;;5090415;28;20424;-75
2022/10/20 01:32:55;;;;;;;3.92;2.97;;;15.50;66.00;;;;;;5091940;28;20127;-75
2022/10/20 01:35:26;;;;;;;3.70;3.05;;;15.50;65.40;;;;;;5092011;28;20134;-75
2022/10/20 01:37:55;;;;;;;4.53;3.25;;;15.50;65.50;;;;;;5091790;28;20051;-74
2022/10/20 01:40:26;;;;;;;4.47;3.17;;;15.50;65.50;;;;;;5092740;28;20401;-75
2022/10/20 01:42:55;;;;;;;3.45;2.63;;;15.50;65.40;;;;;;5091200;28;20052;-74
2022/10/20 01:45:21;;;;;;;4.35;2.92;;;15.50;65.40;;;;;;5091941;28;20066;-75
2022/10/20 01:47:48;;;;;;;4.10;2.95;;;15.40;65.30;;;;;;5092701;28;20070;-75
2022/10/20 01:50:15;;;;;;;4.68;3.15;;;15.40;65.40;;;;;;5091326;28;20052;-74
2022/10/20 01:52:42;;;;;;;4.50;2.95;;;15.40;65.30;;;;;;5091681;28;20056;-74
2022/10/20 01:55:13;;;;;;;5.35;3.10;;;15.40;65.30;;;;;;5091639;28;20458;-75
2022/10/20 01:57:45;;;;;;;4.00;2.97;;;15.50;65.30;;;;;;5082887;28;20055;-74
2022/10/20 02:00:14;;;;;;;3.65;2.60;;;15.40;65.20;;;;;;5070880;28;20067;-75
2022/10/20 02:02:55;;;;;;;3.78;3.05;;;15.40;65.20;;;;;;5071304;28;20056;-75
2022/10/20 02:05:29;;;;;;;3.90;2.78;;;15.40;65.20;;;;;;5071202;28;20055;-74
2022/10/20 02:08:03;;;;;;;4.40;2.67;;;15.40;65.20;;;;;;5070057;28;20511;-75
2022/10/20 02:10:32;;;;;;;4.25;3.13;;;15.40;65.30;;;;;;5070851;28;20056;-75
2022/10/20 02:13:00;;;;;;;4.80;2.67;;;15.40;65.30;;;;;;5086845;28;20414;-75
2022/10/20 02:15:28;;;;;;;4.85;3.22;;;15.40;65.30;;;;;;5091310;28;20070;-74
2022/10/20 02:17:57;;;;;;;3.65;2.70;;;15.30;65.20;;;;;;5091268;28;20052;-74
2022/10/20 02:20:24;;;;;;;3.45;2.53;;;15.30;65.20;;;;;;5089222;28;20062;-75
2022/10/20 02:22:51;;;;;;;3.78;2.72;;;15.40;65.20;;;;;;5090704;28;20424;-75
2022/10/20 02:25:17;;;;;;;3.60;2.70;;;15.40;65.20;;;;;;5091165;28;20059;-74
2022/10/20 02:27:46;;;;;;;3.45;2.42;;;15.30;65.10;;;;;;5090180;28;20070;-74
2022/10/20 02:30:15;;;;;;;3.88;2.65;;;15.40;65.10;;;;;;5091895;28;20048;-74
2022/10/20 02:32:48;;;;;;;4.97;3.15;;;15.30;65.10;;;;;;5091054;28;20052;-75
2022/10/20 02:35:16;;;;;;;3.47;2.55;;;15.30;65.10;;;;;;5092105;28;20386;-74
2022/10/20 02:37:43;;;;;;;4.53;2.60;;;15.30;65.10;;;;;;5090755;28;20058;-74
2022/10/20 02:40:11;;;;;;;4.20;2.50;;;15.00;66.30;;;;;;5090731;28;20059;-75
2022/10/20 02:42:39;;;;;;;3.38;2.33;;;15.30;65.00;;;;;;5084043;28;20395;-75
2022/10/20 02:45:07;;;;;;;3.25;2.45;;;15.30;65.10;;;;;;5070675;28;20059;-74
2022/10/20 02:47:34;;;;;;;3.65;2.63;;;15.30;65.00;;;;;;5070474;28;20048;-75
2022/10/20 02:50:02;;;;;;;3.65;2.55;;;15.30;65.00;;;;;;5070439;28;20048;-74
2022/10/20 02:52:29;;;;;;;3.67;2.58;;;15.30;65.00;;;;;;5070622;28;20056;-74
2022/10/20 02:54:56;;;;;;;5.35;2.60;;;15.30;65.00;;;;;;5070594;28;20056;-74
2022/10/20 02:57:23;;;;;;;3.95;2.67;;;15.30;65.00;;;;;;5072788;28;20051;-74
2022/10/20 02:59:49;;;;;;;3.05;2.35;;;15.20;65.00;;;;;;5071346;28;20048;-74
2022/10/20 03:02:16;;;;;;;3.30;2.70;;;15.20;65.00;;;;;;5070381;28;20058;-75
2022/10/20 03:04:43;;;;;;;3.53;2.70;;;15.20;65.00;;;;;;5070593;28;20485;-74
2022/10/20 03:07:14;;;;;;;3.72;2.40;;;15.20;65.00;;;;;;5071259;28;20673;-74
2022/10/20 03:09:43;;;;;;;2.92;2.38;;;15.20;65.00;;;;;;5070531;28;20062;-74
2022/10/20 03:12:09;;;;;;;3.50;2.45;;;15.20;65.00;;;;;;5081534;28;20051;-75
2022/10/20 03:14:36;;;;;;;3.15;2.42;;;15.20;65.00;;;;;;5090367;28;20412;-74
2022/10/20 03:17:03;;;;;;;3.53;2.42;;;15.20;65.10;;;;;;5090525;28;20056;-74
2022/10/20 03:19:30;;;;;;;3.33;2.33;;;15.20;65.00;;;;;;5092333;28;20048;-74
2022/10/20 03:21:57;;;;;;;3.40;2.50;;;15.20;65.00;;;;;;5094174;28;20052;-74
2022/10/20 03:24:25;;;;;;;3.85;2.78;;;15.20;65.00;;;;;;5094546;28;20052;-74
2022/10/20 03:26:51;;;;;;;;;;;15.20;65.00;;;;;;5078788;28;20060;-74
2022/10/20 03:29:18;;;;;;;3.05;2.13;;;15.10;64.90;;;;;;5073803;28;19920;-74
2022/10/20 03:31:45;;;;;;;2.53;2.10;;;15.10;65.20;;;;;;5073417;28;20135;-74
2022/10/20 03:34:12;;;;;;;4.00;2.20;;;15.10;65.10;;;;;;5074122;28;20508;-74
2022/10/20 03:36:39;;;;;;;4.10;2.78;;;15.20;65.10;;;;;;5074111;28;20087;-74
2022/10/20 03:39:06;;;;;;;3.33;2.50;;;15.10;65.00;;;;;;5073979;28;20131;-74
2022/10/20 03:41:34;;;;;;;2.65;2.30;;;15.10;65.00;;;;;;5089420;28;20568;-74
2022/10/20 03:44:00;;;;;;;2.60;2.33;;;15.20;65.00;;;;;;5094029;28;20059;-74
2022/10/20 03:46:27;;;;;;;3.38;2.58;;;15.10;65.00;;;;;;5094096;28;20051;-74
2022/10/20 03:48:54;;;;;;;3.42;2.40;;;15.10;65.00;;;;;;5093867;28;20048;-74
2022/10/20 03:51:21;;;;;;;3.28;2.50;;;15.10;64.90;;;;;;5093595;28;20056;-74
2022/10/20 03:53:48;;;;;;;5.35;2.67;;;15.10;64.90;;;;;;5093930;28;20056;-74
2022/10/20 03:56:16;;;;;;;2.60;2.10;;;15.10;65.00;;;;;;5073879;28;20048;-74
2022/10/20 03:58:44;;;;;;;2.88;2.33;;;15.10;65.00;;;;;;5073365;28;20048;-74
2022/10/20 04:01:12;;;;;;;3.13;2.42;;;15.10;65.00;;;;;;5073430;28;20057;-74
2022/10/20 04:03:38;;;;;;;3.30;2.17;;;15.10;65.00;;;;;;5073485;28;20063;-74
2022/10/20 04:06:05;;;;;;;2.75;2.35;;;15.00;64.90;;;;;;5056897;28;20052;-74
2022/10/20 04:08:32;;;;;;;3.05;2.40;;;15.10;65.00;;;;;;5073207;28;20059;-74
2022/10/20 04:10:59;;;;;;;4.80;2.42;;;15.10;65.00;;;;;;5092073;28;20060;-74
2022/10/20 04:13:26;;;;;;;3.33;2.33;;;15.10;65.00;;;;;;5094803;28;20408;-74
2022/10/20 04:15:54;;;;;;;2.90;2.20;;;15.10;65.10;;;;;;5093646;28;20066;-74
2022/10/20 04:18:21;;;;;;;3.42;2.40;;;15.00;65.00;;;;;;5093315;28;20052;-74
2022/10/20 04:20:47;;;;;;;3.45;2.28;;;15.00;65.00;;;;;;5093120;28;20054;-74
2022/10/20 04:23:14;;;;;;;4.13;2.40;;;15.10;65.00;;;;;;5090193;28;20487;-74
2022/10/20 04:25:44;;;;;;;3.08;2.30;;;15.00;65.00;;;;;;5072954;28;20499;-74
2022/10/20 04:28:11;;;;;;;3.00;2.50;;;15.10;65.00;;;;;;5072600;28;20057;-74
2022/10/20 04:30:38;;;;;;;2.60;2.15;;;15.00;65.00;;;;;;5055188;28;20057;-74
2022/10/20 04:33:06;;;;;;;2.60;2.17;;;15.10;65.00;;;;;;5072718;28;20052;-74
2022/10/20 04:35:33;;;;;;;2.63;2.17;;;15.00;65.00;;;;;;5074060;28;20111;-74
2022/10/20 04:38:00;;;;;;;2.80;2.30;;;15.10;65.00;;;;;;5075609;28;20048;-74
2022/10/20 04:40:27;;;;;;;2.97;2.20;;;15.10;65.00;;;;;;5092396;28;20060;-74
2022/10/20 04:42:53;;;;;;;2.92;2.28;;;15.10;65.00;;;;;;5093126;28;20055;-74
2022/10/20 04:45:20;;;;;;;2.55;2.10;;;15.10;65.00;;;;;;5094095;28;20048;-74
2022/10/20 04:47:47;;;;;;;3.25;2.03;;;15.10;65.00;;;;;;5092616;28;20051;-74
2022/10/20 04:50:15;;;;;;;2.58;2.13;;;15.10;64.90;;;;;;5092685;28;20052;-74
2022/10/20 04:52:42;;;;;;;2.80;2.20;;;15.10;65.00;;;;;;5087612;28;20058;-74
2022/10/20 04:55:09;;;;;;;2.35;2.00;;;15.10;65.00;;;;;;5082211;28;20063;-74
2022/10/20 04:57:36;;;;;;;2.50;2.00;;;15.10;65.00;;;;;;5072683;28;20486;-75
2022/10/20 05:00:04;;;;;;;3.53;2.13;;;15.10;65.10;;;;;;5072288;28;20052;-74
2022/10/20 05:02:31;;;;;;;3.47;2.13;;;15.10;64.90;;;;;;5072517;28;20539;-74
2022/10/20 05:04:57;;;;;;;2.92;2.40;;;15.10;65.00;;;;;;5072121;28;20062;-74
2022/10/20 05:07:25;;;;;;;3.08;2.10;;;15.10;64.90;;;;;;5072300;28;20131;-74
2022/10/20 05:09:52;;;;;;;3.00;2.40;;;15.10;64.90;;;;;;5085584;28;20048;-74
2022/10/20 05:12:19;;;;;;;4.03;2.10;;;15.10;64.90;;;;;;5092308;28;20058;-74
2022/10/20 05:14:45;;;;;;;2.22;2.00;;;15.10;64.90;;;;;;5092270;28;20058;-74
2022/10/20 05:17:12;;;;;;;2.75;2.15;;;15.10;64.90;;;;;;5092317;28;20113;-73
2022/10/20 05:19:39;;;;;;;3.28;2.20;;;15.10;64.90;;;;;;5092324;28;20130;-74
2022/10/20 05:22:05;;;;;;;3.25;2.35;;;15.10;64.90;;;;;;5092048;28;20062;-74
2022/10/20 05:24:33;;;;;;;2.70;2.30;;;15.10;64.80;;;;;;5078643;28;20106;-74
2022/10/20 05:27:00;;;;;;;2.75;2.10;;;15.10;64.90;;;;;;5080912;28;20052;-74
2022/10/20 05:29:27;;;;;;;2.63;2.30;;;15.10;64.80;;;;;;5091530;28;20054;-73
2022/10/20 05:31:54;;;;;;;2.17;1.90;;;15.10;64.80;;;;;;5091562;28;20052;-74
2022/10/20 05:34:20;;;;;;;2.97;2.33;;;15.10;64.90;;;;;;5092044;28;20550;-74
2022/10/20 05:36:47;;;;;;;2.45;2.25;;;15.00;64.80;;;;;;5092366;28;20082;-73
2022/10/20 05:39:14;;;;;;;3.80;2.10;;;15.00;64.80;;;;;;5093359;28;20130;-74
2022/10/20 05:41:42;;;;;;;2.25;2.05;;;15.00;64.80;;;;;;5092420;28;20504;-74
2022/10/20 05:44:11;;;;;;;2.97;2.33;;;15.00;64.80;;;;;;5092586;28;20144;-74
2022/10/20 05:46:40;;;;;;;2.40;2.08;;;15.00;64.80;;;;;;5092925;28;20121;-74
2022/10/20 05:49:06;;;;;;;2.72;2.22;;;15.00;64.80;;;;;;5092409;28;20048;-74
2022/10/20 05:51:34;;;;;;;3.63;2.28;;;15.00;64.80;;;;;;5092071;28;20545;-73
2022/10/20 05:54:01;;;;;;;2.47;2.10;;;15.00;64.70;;;;;;5074838;28;20048;-74
2022/10/20 05:56:28;;;;;;;2.70;2.10;;;15.00;64.70;;;;;;5071354;28;20409;-74
2022/10/20 05:58:57;;;;;;;2.92;2.20;;;15.00;64.70;;;;;;5071399;28;20464;-74
2022/10/20 06:01:25;;;;;;;3.05;2.22;;;15.00;64.70;;;;;;5072080;28;20092;-74
2022/10/20 06:03:52;;;;;;;3.28;2.30;;;15.00;64.70;;;;;;5071373;28;20139;-74
2022/10/20 06:06:20;;;;;;;3.53;1.92;;;15.00;64.70;;;;;;5072385;28;20080;-74
2022/10/20 06:08:47;;;;;;;2.50;2.20;;;15.00;64.70;;;;;;5091247;28;20433;-74
2022/10/20 06:11:14;;;;;;;2.58;2.10;;;15.00;64.70;;;;;;5092203;28;20485;-73
2022/10/20 06:13:41;;;;;;;3.58;2.17;;;15.00;64.60;;;;;;5092074;28;20040;-74
2022/10/20 06:16:10;;;;;;;2.47;2.20;;;15.00;64.70;;;;;;5091323;28;20400;-73
2022/10/20 06:18:37;;;;;;;3.47;2.40;;;15.00;64.70;;;;;;5092450;28;20044;-74
2022/10/20 06:21:06;;;;;;;2.55;2.30;;;15.00;64.70;;;;;;5091163;28;20055;-74
2022/10/20 06:23:32;;;;;;;2.67;2.20;;;15.00;64.70;;;;;;5091221;28;20130;-73
2022/10/20 06:26:01;;;;;;;3.05;2.50;;;15.00;64.70;;;;;;5091201;28;20058;-74
2022/10/20 06:28:30;;;;;;;2.83;2.33;;;15.00;64.70;;;;;;5090715;28;20044;-74
2022/10/20 06:30:56;;;;;;;2.50;2.00;;;15.00;64.70;;;;;;5090633;28;20058;-73
2022/10/20 06:33:24;;;;;;;2.58;2.25;;;15.00;64.70;;;;;;5092340;28;20044;-72
2022/10/20 06:35:51;;;;;;;3.67;2.30;;;15.00;64.70;;;;;;5084688;28;20155;-75
2022/10/20 06:38:18;;;;;;;2.60;2.20;;;15.00;64.70;;;;;;5070626;28;20059;-74
2022/10/20 06:40:45;;;;;;;3.00;2.40;;;15.00;64.60;;;;;;5071522;28;20079;-74
2022/10/20 06:43:12;;;;;;;2.40;2.10;;;15.00;65.10;;;;;;5070752;28;20056;-74
2022/10/20 06:45:38;;;;;;;3.65;2.50;;;15.30;70.50;;;;;;5069645;28;20497;-73
2022/10/20 06:48:06;;;;;;;4.05;2.40;;;15.40;63.20;;;;;;5070550;28;20056;-73
2022/10/20 06:50:34;;;;;;;2.80;2.35;;;15.20;63.80;;;;;;5070711;28;20086;-73
2022/10/20 06:53:01;;;;;;;2.70;1.98;;;15.20;64.20;;;;;;5086801;28;20373;-73
2022/10/20 06:55:28;;;;;;;3.15;2.22;;;15.10;64.30;;;;;;5080416;28;20087;-73
2022/10/20 06:57:54;;;;;;;3.30;2.35;;;15.10;64.30;;;;;;5070494;28;20086;-73
2022/10/20 07:00:21;;;;;;;3.25;2.30;;;15.10;64.30;;;;;;5070562;28;20055;-73
2022/10/20 07:02:48;;;;;;;3.50;2.20;;;15.00;64.40;;;;;;5089988;28;20535;-73
2022/10/20 07:05:15;;;;;;;2.55;2.20;;;15.10;64.50;;;;;;5090127;28;20062;-73
2022/10/20 07:07:43;;;;;;;2.20;1.92;;;15.10;64.50;;;;;;5090897;28;20062;-74
2022/10/20 07:10:09;;;;;;;4.22;2.40;;;15.10;64.60;;;;;;5091450;28;20408;-74
2022/10/20 07:12:36;;;;;;;2.72;2.38;;;15.10;64.70;;;;;;5090418;28;20058;-74
2022/10/20 07:15:03;;;;;;;2.72;2.17;;;15.10;64.60;;;;;;5090774;28;20058;-74
2022/10/20 07:17:30;;;;;;;2.70;2.05;;;15.10;64.70;;;;;;5081936;28;20048;-74
2022/10/20 07:19:57;;;;;;;4.28;2.20;;;15.10;64.70;;;;;;5081700;28;20048;-74
2022/10/20 07:22:23;;;;;;;3.53;1.98;;;15.10;64.70;;;;;;5090561;28;20052;-74
2022/10/20 07:24:52;;;;;;;3.05;2.00;;;15.10;64.70;;;;;;5090325;28;20066;-74
2022/10/20 07:27:20;;;;;;;2.92;2.17;;;15.20;64.70;;;;;;5090448;28;20058;-73
2022/10/20 07:29:46;;;;;;;2.30;2.00;;;15.20;64.70;;;;;;5091551;28;20048;-73
2022/10/20 07:32:13;;;;;;;3.13;2.10;;;15.20;64.70;;;;;;5089556;28;20048;-74
2022/10/20 07:34:40;;;;;;;2.67;2.08;;;15.30;64.70;;;;;;5090367;28;20083;-73
2022/10/20 07:37:07;;;;;;;3.25;2.00;;;15.30;64.60;;;;;;5090425;28;20060;-74
2022/10/20 07:39:33;;;;;;;2.25;1.83;;;15.40;64.60;;;;;;5090517;28;20043;-73
2022/10/20 07:42:01;;;;;;;2.40;1.80;;;15.40;64.60;;;;;;5090332;28;20114;-73
2022/10/20 07:44:28;;;;;;;2.22;1.80;;;15.50;64.60;;;;;;5090390;28;20064;-74
2022/10/20 07:46:55;;;;;;;1.83;1.63;;;15.50;64.50;;;;;;5074941;28;20549;-73
2022/10/20 07:49:22;;;;;;;3.75;1.90;;;15.60;64.50;;;;;;5069607;28;20055;-73
2022/10/20 07:51:48;;;;;;;1.70;1.60;;;15.60;64.40;;;;;;5069768;28;20056;-73
2022/10/20 07:54:15;;;;;;;2.83;1.83;;;15.60;64.40;;;;;;5086543;28;20044;-73
2022/10/20 07:56:42;;;;;;;3.03;2.10;;;15.60;64.30;;;;;;5096652;28;20048;-73
2022/10/20 07:59:11;;;;;;;2.40;1.73;;;15.70;64.30;;;;;;5093872;28;20131;-74
2022/10/20 08:01:38;;;;;;;2.47;1.92;;;15.70;64.30;;;;;;5087049;28;20054;-73
2022/10/20 08:04:05;;;;;;;2.60;1.90;;;15.70;64.30;;;;;;5089244;28;20052;-73
2022/10/20 08:06:32;;;;;;;2.30;1.80;;;15.70;64.20;;;;;;5096862;28;20047;-73
2022/10/20 08:08:58;;;;;;;3.42;1.90;;;15.70;64.20;;;;;;5104115;28;20052;-73
2022/10/20 08:11:25;;;;;;;2.30;1.80;;;15.80;64.30;;;;;;5102229;28;20124;-74
2022/10/20 08:13:52;;;;;;;2.33;1.60;;;15.80;64.20;;;;;;5103744;28;20130;-74
2022/10/20 08:16:20;;;;;;;1.90;1.70;;;15.80;64.20;;;;;;5102253;28;20552;-74
2022/10/20 08:18:47;;;;;;;3.03;1.80;;;15.80;64.20;;;;;;5093561;28;20102;-75
2022/10/20 08:21:15;;;;;;;2.53;1.60;;;15.80;64.20;;;;;;5085309;28;20048;-75
2022/10/20 08:23:42;;;;;;;2.40;1.70;;;15.80;64.70;;;;;;5076097;28;20390;-75
2022/10/20 08:26:08;;;;;;;3.13;2.08;;;15.90;64.20;;;;;;5098246;28;20048;-74
2022/10/20 08:28:35;;;;;;;2.13;1.70;;;15.90;64.20;;;;;;5099105;28;20043;-75
2022/10/20 08:31:02;;;;;;;2.70;1.80;;;15.90;64.10;;;;;;5071936;28;20056;-73
2022/10/20 08:33:30;;;;;;;2.83;1.80;;;15.90;64.70;;;;;;5073253;28;20052;-74
2022/10/20 08:36:01;;;;;;;2.10;1.60;;;15.90;64.10;;;;;;5074398;28;20409;-74
2022/10/20 08:38:28;;;;;;;3.25;1.77;;;15.90;64.10;;;;;;5072899;28;20059;-74
2022/10/20 08:40:55;;;;;;;2.50;1.80;;;16.00;64.20;;;;;;5072481;28;20048;-73
2022/10/20 08:43:22;;;;;;;1.77;1.48;;;16.00;64.30;;;;;;5074041;28;20059;-73
2022/10/20 08:45:48;;;;;;;2.17;1.85;;;16.00;64.30;;;;;;5056200;28;20401;-73
2022/10/20 08:48:16;;;;;;;2.20;1.70;;;16.00;64.30;;;;;;5072541;28;20136;-73
2022/10/20 08:50:45;;;;;;;2.00;1.67;;;16.10;64.20;;;;;;5073535;28;20433;-75
2022/10/20 08:53:12;;;;;;;2.13;1.60;;;16.10;64.20;;;;;;5072706;28;20055;-75
2022/10/20 08:55:39;;;;;;;1.58;1.33;;;16.10;64.10;;;;;;5072309;28;20139;-75
2022/10/20 08:58:06;;;;;;;2.00;1.50;;;16.10;64.10;;;;;;5083999;28;20432;-75
2022/10/20 09:00:35;;;;;;;3.38;1.80;;;16.10;64.10;;;;;;5105091;28;20073;-76
2022/10/20 09:03:09;;;;;;;2.60;1.70;;;16.20;64.10;;;;;;5073611;28;20409;-74
2022/10/20 09:05:36;;;;;;;1.88;1.55;;;16.20;64.10;;;;;;5081591;28;20109;-74
2022/10/20 09:08:04;;;;;;;2.55;1.75;;;16.20;64.10;;;;;;5112614;28;20415;-74
2022/10/20 09:10:33;;;;;;;2.17;1.60;;;16.20;64.10;;;;;;5112760;28;20054;-74
2022/10/20 09:12:59;;;;;;;2.28;1.52;;;16.30;64.10;;;;;;5110986;28;20484;-74
2022/10/20 09:15:26;;;;;;;2.45;1.70;;;16.20;64.00;;;;;;5092754;28;20059;-75
2022/10/20 09:17:54;;;;;;;3.72;1.70;;;16.30;64.00;;;;;;5093141;28;20052;-74
2022/10/20 09:20:22;;;;;;;2.20;1.65;;;16.30;64.00;;;;;;5096463;28;20048;-74
2022/10/20 09:22:48;;;;;;;2.80;1.98;;;16.30;64.10;;;;;;5098424;28;20062;-74
2022/10/20 09:25:17;;;;;;;2.70;1.90;;;16.30;64.00;;;;;;5101122;28;20488;-75
2022/10/20 09:27:44;;;;;;;2.70;1.80;;;16.30;64.00;;;;;;5102882;28;20055;-74
2022/10/20 09:30:16;;;;;;;3.78;1.70;;;16.30;64.00;;;;;;5102420;28;20048;-74
2022/10/20 09:32:43;;;;;;;2.00;1.50;;;16.40;64.10;;;;;;5100832;28;20565;-74
2022/10/20 09:35:19;;;;;;;1.88;1.52;;;16.30;64.00;;;;;;5102830;28;20053;-74
2022/10/20 09:37:57;;;;;;;2.20;1.80;;;16.40;64.00;;;;;;5100469;28;20047;-74
2022/10/20 09:40:25;;;;;;;1.80;1.52;;;16.40;64.00;;;;;;5100357;28;20384;-74
2022/10/20 09:42:53;;;;;;;2.45;1.80;;;16.40;64.00;;;;;;5102961;28;20477;-73
2022/10/20 09:45:21;;;;;;;2.70;1.60;;;16.40;64.00;;;;;;5104526;28;20143;-74
2022/10/20 09:47:50;;;;;;;3.35;1.65;;;16.40;64.00;;;;;;5108187;28;20123;-73
2022/10/20 09:50:19;;;;;;;2.80;1.65;;;16.40;64.30;;;;;;5102510;28;20044;-74
2022/10/20 09:52:47;;;;;;;6.13;1.98;;;16.40;64.00;;;;;;5092651;28;20139;-73
2022/10/20 09:55:21;;;;;;;4.97;1.90;;;16.50;64.00;;;;;;5091899;28;20062;-74
2022/10/20 09:57:49;;;;;;;2.77;1.63;;;16.50;64.10;;;;;;5073391;28;20476;-74
2022/10/20 10:00:23;;;;;;;3.97;1.90;;;16.50;64.10;;;;;;5072379;28;20047;-73
2022/10/20 10:02:50;;;;;;;2.63;1.52;;;16.50;64.10;;;;;;5071622;28;20524;-73
2022/10/20 10:05:19;;;;;;;3.85;1.90;;;16.50;64.10;;;;;;5072877;28;20410;-74
2022/10/20 10:07:45;;;;;;;2.95;1.77;;;16.50;64.60;;;;;;5074949;28;20067;-75
2022/10/20 10:10:24;;;;;;;3.10;1.58;;;16.60;64.20;;;;;;5092729;28;20136;-75
2022/10/20 10:12:52;;;;;;;2.75;1.60;;;16.60;64.10;;;;;;5095710;28;20052;-75
2022/10/20 10:15:25;;;;;;;3.47;1.80;;;16.60;64.10;;;;;;5111813;28;20055;-75
2022/10/20 10:17:52;;;;;;;1.70;1.50;;;16.60;64.10;;;;;;5111923;28;20059;-74
2022/10/20 10:20:29;;;;;;;3.08;1.60;;;16.60;64.10;;;;;;5111604;28;20088;-74
2022/10/20 10:23:19;;;;;;;1.80;1.60;;;16.60;64.10;;;;;;5082330;28;20056;-74
2022/10/20 10:25:46;;;;;;;5.00;1.48;;;16.60;64.10;;;;;;5076941;28;20063;-73
2022/10/20 10:28:32;;;;;;;4.10;1.80;;;16.60;64.10;;;;;;5088521;28;20055;-74
2022/10/20 10:31:07;;;;;;;1.95;1.63;;;16.60;64.10;;;;;;5101736;28;20044;-75
2022/10/20 10:33:34;;;;;;;2.10;1.70;;;16.60;64.10;;;;;;5097726;28;20059;-74
2022/10/20 10:36:01;;;;;;;3.35;1.83;;;16.80;64.20;;;;;;5099921;28;20051;-74
2022/10/20 10:38:28;;;;;;;1.73;1.60;;;16.60;64.10;;;;;;5097173;28;20051;-74
2022/10/20 10:41:00;;;;;;;2.20;1.58;;;16.60;64.10;;;;;;5100411;28;20072;-74
2022/10/20 10:43:30;;;;;;;3.25;1.77;;;16.60;64.20;;;;;;5099044;28;20053;-74
2022/10/20 10:45:57;;;;;;;2.50;1.73;;;16.60;64.30;;;;;;5100462;28;20076;-73
2022/10/20 10:48:35;;;;;;;2.83;1.80;;;16.60;64.30;;;;;;5097843;28;20066;-75
2022/10/20 10:51:04;;;;;;;1.92;1.50;;;16.60;64.30;;;;;;5084074;28;20098;-74
2022/10/20 10:53:40;;;;;;;2.25;1.80;;;16.60;64.40;;;;;;5070384;28;20182;-75
2022/10/20 10:56:11;;;;;;;3.00;1.85;;;16.70;64.60;;;;;;5070878;28;20052;-74
2022/10/20 10:58:46;;;;;;;2.13;1.70;;;16.70;64.80;;;;;;5086133;28;20066;-74
2022/10/20 11:01:22;;;;;;;;;;;16.70;64.90;;;;;;5080693;28;20044;-73
2022/10/20 11:03:58;;;;;;;4.93;2.10;;;16.70;65.20;;;;;;5097382;28;20011;-73
2022/10/20 11:06:27;;;;;;;3.40;1.80;;;16.70;65.30;;;;;;5082425;28;20127;-73
2022/10/20 11:09:10;;;;;;;2.60;1.83;;;16.70;65.30;;;;;;5080003;28;20461;-73
2022/10/20 11:11:44;;;;;;;4.43;2.10;;;16.80;65.40;;;;;;5078242;28;20054;-73
2022/10/20 11:14:23;;;;;;;2.05;1.67;;;16.70;65.40;;;;;;5077572;28;20063;-73
2022/10/20 11:16:59;;;;;;;3.05;2.00;;;16.70;65.50;;;;;;5070351;28;20481;-73
2022/10/20 11:20:08;;;;;;;2.75;2.08;;;16.70;65.50;;;;;;5074767;28;20048;-73
2022/10/20 11:22:42;;;;;;;2.50;1.80;;;16.80;65.50;;;;;;5024515;28;20524;-73
2022/10/20 11:25:18;;;;;;;4.03;2.15;;;16.70;65.50;;;;;;5080434;28;20408;-73
2022/10/20 11:27:45;;;;;;;2.55;1.80;;;16.80;65.50;;;;;;5087069;28;20165;-73
2022/10/20 11:30:18;;;;;;;2.92;2.00;;;16.70;65.50;;;;;;5076191;28;20047;-73
2022/10/20 11:32:47;;;;;;;3.10;1.90;;;16.70;65.50;;;;;;5091302;28;20052;-73
2022/10/20 11:35:17;;;;;;;2.05;1.75;;;16.70;65.50;;;;;;5097910;28;20052;-74
2022/10/20 11:37:45;;;;;;;3.03;1.75;;;16.70;65.30;;;;;;5090677;28;20152;-73
2022/10/20 11:40:20;;;;;;;3.25;2.00;;;16.70;65.30;;;;;;5090711;28;20052;-73
2022/10/20 11:42:49;;;;;;;2.90;1.77;;;16.70;65.20;;;;;;5094328;28;20063;-73
2022/10/20 11:45:40;;;;;;;2.10;1.90;;;16.70;65.20;;;;;;5094196;28;20067;-73
2022/10/20 11:48:12;;;;;;;3.20;2.03;;;16.70;65.20;;;;;;5107969;28;20419;-74
2022/10/20 11:50:38;;;;;;;3.28;1.98;;;16.70;65.30;;;;;;5112326;28;20873;-73
2022/10/20 11:53:38;;;;;;;2.40;1.67;;;16.70;65.30;;;;;;5114588;28;20408;-75
2022/10/20 11:56:24;;;;;;;2.55;2.00;;;16.70;65.30;;;;;;5097258;28;20062;-74
2022/10/20 11:59:06;;;;;;;5.43;2.20;;;16.70;65.30;;;;;;5094379;28;20051;-74
2022/10/20 12:01:36;;;;;;;3.42;2.10;;;16.70;65.30;;;;;;5094332;28;20137;-75
2022/10/20 12:04:17;;;;;;;2.15;1.67;;;16.60;65.30;;;;;;5093888;28;20064;-74
2022/10/20 12:07:10;;;;;;;2.05;1.67;;;16.70;65.30;;;;;;5095497;28;20123;-74
2022/10/20 12:09:52;;;;;;;4.05;2.33;;;16.70;65.30;;;;;;5089295;28;20059;-75
2022/10/20 12:12:19;;;;;;;2.75;1.80;;;16.70;65.30;;;;;;5074009;28;20048;-74
2022/10/20 12:14:49;;;;;;;2.58;2.10;;;16.70;65.40;;;;;;5073372;28;20056;-73
2022/10/20 12:17:37;;;;;;;3.33;1.90;;;16.70;65.30;;;;;;5074453;28;20497;-73
2022/10/20 12:20:58;;;;;;;2.38;1.60;;;16.70;65.40;;;;;;5071639;28;20477;-74
2022/10/20 12:24:01;;;;;;;2.20;1.80;;;16.60;65.20;;;;;;5075190;28;20060;-74
2022/10/20 12:27:05;;;;;;;3.22;1.90;;;16.60;65.20;;;;;;5097523;28;20047;-73
2022/10/20 12:29:54;;;;;;;2.20;1.75;;;16.60;65.20;;;;;;5113868;28;20063;-73
2022/10/20 12:32:38;;;;;;;2.45;1.80;;;16.60;65.20;;;;;;5113823;28;20056;-73
2022/10/20 12:35:40;;;;;;;2.03;1.80;;;16.60;65.20;;;;;;5113955;28;20047;-73
2022/10/20 12:38:16;;;;;;;2.55;1.80;;;16.60;65.20;;;;;;5060994;28;20064;-73
2022/10/20 12:40:44;;;;;;;2.17;1.73;;;16.60;65.30;;;;;;5080904;28;20055;-73
2022/10/20 12:43:25;;;;;;;2.70;1.83;;;16.60;65.30;;;;;;5083712;28;20457;-73
2022/10/20 12:45:52;;;;;;;2.28;1.90;;;16.60;65.30;;;;;;5080459;28;20056;-73
2022/10/20 12:48:22;;;;;;;2.17;1.80;;;16.60;65.30;;;;;;5088044;28;20052;-73
2022/10/20 12:50:49;;;;;;;4.93;1.80;;;16.70;65.40;;;;;;5082847;28;20041;-73
2022/10/20 12:53:20;;;;;;;1.95;1.58;;;16.60;65.40;;;;;;5084083;28;20056;-73
2022/10/20 12:55:48;;;;;;;4.32;1.80;;;16.60;65.40;;;;;;5084181;28;20062;-74
2022/10/20 12:58:29;;;;;;;2.33;1.77;;;16.60;65.40;;;;;;5083577;28;20059;-73
2022/10/20 13:01:10;;;;;;;2.20;1.77;;;16.60;65.30;;;;;;5083264;28;20050;-74